Taraska — E5U2755 — position and weather

sailwx.info

Track history (hours):
 
Tides and Currents Weather Stations Pressure Air Temp Water Temp Dewpoint Dewpoint Depression Visibility Wind Speed Wind Dir Waves Ship Positions

Taraska

Last reported at 2017-Sep-07 23:25 UTC. Time now 2017-Sep-23 00:19 UTC.
Position N 27°14' W 015°30'.
Warning: this ship's position is 15 days out of date.

Length 37 m; draft 2.5 m.

Type: Ship. MMSI: 518808000.

Date/timePositionNaut miles runAvg speedWind from/ knotsBaromVisibWave heightAir tempDewpointWater temp
2017-Sep-07 23:25N 27°14' W 015°30'4 7.9
2017-Sep-07 22:55N 27°18' W 015°29'5 8.2
2017-Sep-07 22:17N 27°23' W 015°28'3 8.5
2017-Sep-07 21:54N 27°26' W 015°27'4 8.4
2017-Sep-07 21:26N 27°30' W 015°26'16 9.4
2017-Sep-07 19:42N 27°46' W 015°21'210.1
2017-Sep-07 19:29N 27°48' W 015°21'510.0
2017-Sep-07 19:00N 27°53' W 015°19'5 9.2
2017-Sep-07 18:31N 27°57' W 015°19'4 8.6
2017-Sep-07 18:00N 28°01' W 015°20'4 8.5
2017-Sep-07 17:31N 28°05' W 015°22'4 7.9
2017-Sep-07 17:01N 28°08' W 015°25'1 1.6
2017-Sep-07 16:30N 28°09' W 015°26'0 0.0
2017-Sep-07 16:00N 28°09' W 015°26'0 0.0
2017-Sep-07 15:30N 28°09' W 015°26'0 0.0
2017-Sep-07 15:00N 28°09' W 015°26'0 0.0
2017-Sep-07 14:30N 28°09' W 015°26'0 0.0
2017-Sep-07 14:00N 28°09' W 015°26'0 0.0
2017-Sep-07 13:30N 28°09' W 015°26'0 0.0
2017-Sep-07 12:57N 28°09' W 015°26'0 0.0
2017-Sep-07 12:30N 28°09' W 015°26'0 0.0
2017-Sep-07 12:00N 28°09' W 015°26'0 0.0
2017-Sep-07 11:30N 28°09' W 015°26'0 0.0
2017-Sep-07 11:00N 28°09' W 015°26'0 0.0
2017-Sep-07 10:21N 28°09' W 015°26'0 0.0
2017-Sep-07 10:00N 28°09' W 015°26'0 0.0
2017-Sep-07 09:30N 28°09' W 015°26'0 0.0
2017-Sep-07 08:51N 28°09' W 015°26'0 0.0
2017-Sep-07 08:21N 28°09' W 015°26'0 0.0
2017-Sep-07 07:54N 28°09' W 015°26'0 0.0
2017-Sep-07 07:21N 28°09' W 015°26'0 0.0
2017-Sep-07 06:54N 28°09' W 015°26'0 0.0
2017-Sep-07 06:24N 28°09' W 015°26'0 0.0
2017-Sep-07 05:54N 28°09' W 015°26'0 0.0
2017-Sep-07 05:27N 28°09' W 015°26'0 0.0
2017-Sep-07 04:57N 28°09' W 015°26'0 0.0
2017-Sep-07 04:27N 28°09' W 015°26'0 0.0
2017-Sep-07 03:57N 28°09' W 015°26'0 0.0
2017-Sep-07 03:27N 28°09' W 015°26'0 0.0
2017-Sep-07 02:57N 28°09' W 015°26'0 0.0
2017-Sep-07 02:27N 28°09' W 015°26'0 0.0
2017-Sep-07 02:00N 28°09' W 015°26'0 0.0
2017-Sep-07 01:27N 28°09' W 015°26'0 0.0
2017-Sep-07 01:00N 28°09' W 015°26'0 0.0
2017-Sep-07 00:30N 28°09' W 015°26'0 0.0
2017-Sep-06 23:57N 28°09' W 015°26'0 0.0
2017-Sep-06 23:30N 28°09' W 015°26'0 0.0
2017-Sep-06 23:00N 28°09' W 015°26'0 0.0
2017-Sep-06 22:30N 28°09' W 015°26'0 0.0
2017-Sep-06 22:00N 28°09' W 015°26'0 0.0
2017-Sep-06 21:30N 28°09' W 015°26'0 0.0
2017-Sep-06 21:00N 28°09' W 015°26'0 0.0
2017-Sep-06 20:30N 28°09' W 015°26'0 0.0
2017-Sep-06 20:00N 28°09' W 015°26'0 0.0
2017-Sep-06 19:30N 28°09' W 015°26'0 0.0
2017-Sep-06 19:00N 28°09' W 015°26'0 0.0
2017-Sep-06 18:30N 28°09' W 015°26'0 0.0
2017-Sep-06 17:51N 28°09' W 015°26'0 0.0
2017-Sep-06 17:21N 28°09' W 015°26'0 0.0
2017-Sep-06 16:54N 28°09' W 015°26'0 0.0
2017-Sep-06 16:24N 28°09' W 015°26'0 0.0
2017-Sep-06 15:54N 28°09' W 015°26'0 0.0
2017-Sep-06 15:24N 28°09' W 015°26'0 0.0
2017-Sep-06 14:54N 28°09' W 015°26'0 0.0
2017-Sep-06 14:24N 28°09' W 015°26'0 0.0
2017-Sep-06 13:57N 28°09' W 015°26'0 0.0
2017-Sep-06 13:27N 28°09' W 015°26'0 0.0
2017-Sep-06 12:57N 28°09' W 015°26'0 0.0
2017-Sep-06 12:27N 28°09' W 015°26'0 0.0
2017-Sep-06 11:57N 28°09' W 015°26'0 0.0
2017-Sep-06 11:27N 28°09' W 015°26'0 0.0
2017-Sep-06 11:00N 28°09' W 015°26'0 0.0
2017-Sep-06 10:30N 28°09' W 015°26'0 0.0
2017-Sep-06 10:00N 28°09' W 015°26'0 0.0
2017-Sep-06 09:30N 28°09' W 015°26'0 0.0
2017-Sep-06 09:00N 28°09' W 015°26'0 0.0
2017-Sep-06 08:30N 28°09' W 015°26'0 0.0
2017-Sep-06 08:00N 28°09' W 015°26'0 0.0
2017-Sep-06 07:30N 28°09' W 015°26'0 0.0
2017-Sep-06 07:00N 28°09' W 015°26'0 0.0
2017-Sep-06 06:30N 28°09' W 015°26'0 0.0
2017-Sep-06 06:00N 28°09' W 015°26'0 0.0
2017-Sep-06 05:18N 28°09' W 015°26'0 0.0
2017-Sep-06 05:00N 28°09' W 015°26'0 0.0
2017-Sep-06 04:30N 28°09' W 015°26'0 0.0
2017-Sep-06 04:00N 28°09' W 015°26'0 0.0
2017-Sep-06 03:21N 28°09' W 015°26'0 0.0
2017-Sep-06 02:51N 28°09' W 015°26'0 0.0
2017-Sep-06 02:21N 28°09' W 015°26'0 0.0
2017-Sep-06 01:51N 28°09' W 015°26'0 0.0
2017-Sep-06 01:21N 28°09' W 015°26'0 0.0
2017-Sep-06 00:54N 28°09' W 015°26'0 0.0
2017-Sep-06 00:24N 28°09' W 015°26'0 0.0
2017-Sep-05 23:54N 28°09' W 015°26'0 0.0
2017-Sep-05 23:24N 28°09' W 015°26'0 0.0
2017-Sep-05 22:57N 28°09' W 015°26'0 0.0
2017-Sep-05 22:27N 28°09' W 015°26'0 0.0
2017-Sep-05 21:57N 28°09' W 015°26'0 0.0
2017-Sep-05 21:27N 28°09' W 015°26'0 0.0
2017-Sep-05 20:57N 28°09' W 015°26'0 0.0
2017-Sep-05 20:30N 28°09' W 015°26'0 0.0
2017-Sep-05 20:00N 28°09' W 015°26'0 0.0
2017-Sep-05 19:30N 28°09' W 015°26'0 0.0
2017-Sep-05 18:57N 28°09' W 015°26'0 0.0
2017-Sep-05 18:30N 28°09' W 015°26'0 0.0
2017-Sep-05 18:00N 28°09' W 015°26'0 0.0
2017-Sep-05 17:30N 28°09' W 015°26'0 0.0
2017-Sep-05 17:00N 28°09' W 015°26'0 0.0
2017-Sep-05 16:27N 28°09' W 015°26'0 0.0
2017-Sep-05 16:00N 28°09' W 015°26'0 0.0
2017-Sep-05 15:30N 28°09' W 015°26'0 0.0
2017-Sep-05 15:00N 28°09' W 015°26'0 0.0
2017-Sep-05 14:30N 28°09' W 015°26'0 0.0
2017-Sep-05 14:00N 28°09' W 015°26'0 0.0
2017-Sep-05 13:30N 28°09' W 015°26'0 0.0
2017-Sep-05 13:00N 28°09' W 015°26'0 0.0
2017-Sep-05 12:30N 28°09' W 015°26'0 0.0
2017-Sep-05 12:00N 28°09' W 015°26'0 0.0
2017-Sep-05 11:21N 28°09' W 015°26'0 0.0
2017-Sep-05 10:51N 28°09' W 015°26'0 0.0
2017-Sep-05 10:21N 28°09' W 015°26'0 0.0
2017-Sep-05 09:54N 28°09' W 015°26'0 0.0
2017-Sep-05 09:24N 28°09' W 015°26'0 0.0
2017-Sep-05 08:54N 28°09' W 015°26'0 0.0
2017-Sep-05 08:24N 28°09' W 015°26'0 0.0
2017-Sep-05 07:57N 28°09' W 015°26'0 0.0
2017-Sep-05 07:27N 28°09' W 015°26'0 0.0
2017-Sep-05 06:57N 28°09' W 015°26'0 0.0
2017-Sep-05 06:27N 28°09' W 015°26'0 0.0
2017-Sep-05 05:57N 28°09' W 015°26'0 0.0
2017-Sep-05 05:27N 28°09' W 015°26'0 0.0
2017-Sep-05 05:00N 28°09' W 015°26'0 0.0
2017-Sep-05 04:30N 28°09' W 015°26'0 0.0
2017-Sep-05 04:00N 28°09' W 015°26'0 0.0
2017-Sep-05 03:30N 28°09' W 015°26'0 0.0
2017-Sep-05 03:00N 28°09' W 015°26'0 0.0
2017-Sep-05 02:30N 28°09' W 015°26'0 0.0
2017-Sep-05 02:00N 28°09' W 015°26'0 0.0
2017-Sep-05 01:30N 28°09' W 015°26'0 0.0
2017-Sep-05 01:00N 28°09' W 015°26'0 0.0
2017-Sep-05 00:30N 28°09' W 015°26'0 0.0
2017-Sep-05 00:00N 28°09' W 015°26'0 0.0
2017-Sep-04 23:30N 28°09' W 015°26'0 0.0
2017-Sep-04 23:00N 28°09' W 015°26'0 0.0
2017-Sep-04 22:30N 28°09' W 015°26'0 0.0
2017-Sep-04 22:00N 28°09' W 015°26'0 0.0
2017-Sep-04 21:30N 28°09' W 015°26'0 0.0
2017-Sep-04 20:51N 28°09' W 015°26'0 0.0
2017-Sep-04 20:21N 28°09' W 015°26'0 0.0
2017-Sep-04 19:51N 28°09' W 015°26'0 0.0
2017-Sep-04 19:24N 28°09' W 015°26'0 0.0
2017-Sep-04 18:54N 28°09' W 015°26'0 0.0
2017-Sep-04 18:24N 28°09' W 015°26'0 0.0
2017-Sep-04 17:54N 28°09' W 015°26'0 0.0
2017-Sep-04 17:24N 28°09' W 015°26'0 0.0
2017-Sep-04 16:57N 28°09' W 015°26'0 0.0
2017-Sep-04 16:27N 28°09' W 015°26'0 0.0
2017-Sep-04 15:57N 28°09' W 015°26'0 0.0
2017-Sep-04 15:27N 28°09' W 015°26'0 0.0
2017-Sep-04 14:57N 28°09' W 015°26'0 0.0
2017-Sep-04 14:27N 28°09' W 015°26'0 0.0
2017-Sep-04 13:57N 28°09' W 015°26'0 0.0
2017-Sep-04 13:30N 28°09' W 015°26'0 0.0
2017-Sep-04 13:00N 28°09' W 015°26'0 0.0
2017-Sep-04 12:30N 28°09' W 015°26'0 0.0
2017-Sep-04 11:45N 28°09' W 015°26'0 0.0
2017-Sep-04 11:30N 28°09' W 015°26'0 0.0
2017-Sep-04 11:00N 28°09' W 015°26'0 0.0
2017-Sep-04 10:30N 28°09' W 015°26'0 0.0
2017-Sep-04 10:00N 28°09' W 015°26'0 0.0
2017-Sep-04 09:30N 28°09' W 015°26'0 0.0
2017-Sep-04 09:00N 28°09' W 015°26'0 0.0
2017-Sep-04 08:30N 28°09' W 015°26'0 0.0
2017-Sep-04 07:51N 28°09' W 015°26'0 0.0
2017-Sep-04 07:30N 28°09' W 015°26'0 0.0
2017-Sep-04 06:51N 28°09' W 015°26'0 0.0
2017-Sep-04 06:21N 28°09' W 015°26'0 0.0
2017-Sep-04 05:51N 28°09' W 015°26'0 0.0
2017-Sep-04 05:20N 28°09' W 015°26'0 0.0
2017-Sep-04 04:54N 28°09' W 015°26'0 0.0
2017-Sep-04 04:24N 28°09' W 015°26'0 0.0
2017-Sep-04 03:51N 28°09' W 015°26'0 0.0
2017-Sep-04 03:24N 28°09' W 015°26'0 0.0
2017-Sep-04 02:54N 28°09' W 015°26'0 0.0
2017-Sep-04 02:21N 28°09' W 015°26'0 0.0
2017-Sep-04 01:57N 28°09' W 015°26'0 0.0
2017-Sep-04 01:27N 28°09' W 015°26'0 0.0
2017-Sep-04 00:57N 28°09' W 015°26'0 0.0
2017-Sep-04 00:27N 28°09' W 015°26'0 0.0
2017-Sep-03 23:57N 28°09' W 015°26'0 0.0
2017-Sep-03 23:27N 28°09' W 015°26'0 0.0
2017-Sep-03 22:57N 28°09' W 015°26'0 0.0
2017-Sep-03 22:27N 28°09' W 015°26'0 0.0
2017-Sep-03 22:00N 28°09' W 015°26'0 0.0
2017-Sep-03 21:30N 28°09' W 015°26'0 0.0
2017-Sep-03 21:00N 28°09' W 015°26'0 0.0
2017-Sep-03 20:30N 28°09' W 015°26'0 0.0
2017-Sep-03 19:59N 28°09' W 015°26'0 0.0
2017-Sep-03 19:30N 28°09' W 015°26'0 0.0
2017-Sep-03 19:00N 28°09' W 015°26'0 0.0
2017-Sep-03 18:30N 28°09' W 015°26'0 0.0
2017-Sep-03 18:00N 28°09' W 015°26'0 0.0
2017-Sep-03 17:30N 28°09' W 015°26'0 0.0
2017-Sep-03 17:00N 28°09' W 015°26'0 0.0
2017-Sep-03 16:30N 28°09' W 015°26'0 0.0
2017-Sep-03 16:00N 28°09' W 015°26'0 0.0
2017-Sep-03 15:29N 28°09' W 015°26'0 0.0
2017-Sep-03 14:51N 28°09' W 015°26'0 0.0
2017-Sep-03 13:50N 28°09' W 015°26'0 0.0
2017-Sep-03 13:20N 28°09' W 015°26'0 0.0
2017-Sep-03 12:54N 28°09' W 015°26'0 0.0
2017-Sep-03 12:23N 28°09' W 015°26'0 0.0
2017-Sep-03 11:53N 28°09' W 015°26'0 0.0
2017-Sep-03 11:27N 28°09' W 015°26'0 0.0
2017-Sep-03 10:57N 28°09' W 015°26'0 0.0
2017-Sep-03 10:26N 28°09' W 015°26'0 0.0
2017-Sep-03 09:57N 28°09' W 015°26'0 0.0
2017-Sep-03 09:27N 28°09' W 015°26'0 0.0
2017-Sep-03 08:56N 28°09' W 015°26'0 0.0
2017-Sep-03 08:26N 28°09' W 015°26'0 0.0
2017-Sep-03 08:00N 28°09' W 015°26'0 0.0
2017-Sep-03 07:29N 28°09' W 015°26'0 0.0
2017-Sep-03 06:59N 28°09' W 015°26'0 0.0
2017-Sep-03 06:29N 28°09' W 015°26'0 0.0
2017-Sep-03 06:00N 28°09' W 015°26'0 0.0
2017-Sep-03 05:29N 28°09' W 015°26'0 0.0
2017-Sep-03 05:00N 28°09' W 015°26'0 0.0
2017-Sep-03 04:29N 28°09' W 015°26'0 0.0
2017-Sep-03 03:59N 28°09' W 015°26'0 0.0
2017-Sep-03 03:29N 28°09' W 015°26'0 0.0
2017-Sep-03 03:00N 28°09' W 015°26'0 0.0
2017-Sep-03 02:29N 28°09' W 015°26'0 0.0
2017-Sep-03 01:59N 28°09' W 015°26'0 0.0
2017-Sep-03 01:29N 28°09' W 015°26'0 0.0
2017-Sep-03 00:59N 28°09' W 015°26'0 0.0
2017-Sep-03 00:29N 28°09' W 015°26'0 0.0
2017-Sep-02 23:54N 28°09' W 015°26'0 0.0
2017-Sep-02 23:20N 28°09' W 015°26'0 0.0
2017-Sep-02 22:50N 28°09' W 015°26'0 0.0
2017-Sep-02 22:20N 28°09' W 015°26'0 0.0
2017-Sep-02 21:53N 28°09' W 015°26'0 0.0
2017-Sep-02 21:24N 28°09' W 015°26'0 0.0
2017-Sep-02 20:53N 28°09' W 015°26'0 0.0
2017-Sep-02 20:23N 28°09' W 015°26'0 0.0
2017-Sep-02 19:50N 28°09' W 015°26'0 0.0
2017-Sep-02 19:23N 28°09' W 015°26'0 0.0
2017-Sep-02 18:56N 28°09' W 015°26'0 0.0
2017-Sep-02 18:26N 28°09' W 015°26'0 0.0
2017-Sep-02 17:56N 28°09' W 015°26'0 0.0
2017-Sep-02 17:26N 28°09' W 015°26'0 0.0
2017-Sep-02 16:56N 28°09' W 015°26'0 0.0
2017-Sep-02 16:29N 28°09' W 015°26'0 0.0
2017-Sep-02 15:59N 28°09' W 015°26'0 0.0
2017-Sep-02 15:29N 28°09' W 015°26'0 0.0
2017-Sep-02 14:59N 28°09' W 015°26'0 0.0
2017-Sep-02 14:29N 28°09' W 015°26'0 0.0
2017-Sep-02 13:59N 28°09' W 015°26'0 0.0
2017-Sep-02 13:29N 28°09' W 015°26'0 0.0
2017-Sep-02 12:59N 28°09' W 015°26'0 0.0
2017-Sep-02 12:29N 28°09' W 015°26'0 0.0
2017-Sep-02 11:59N 28°09' W 015°26'0 0.0
2017-Sep-02 11:29N 28°09' W 015°26'0 0.0
2017-Sep-02 10:59N 28°09' W 015°26'0 0.0
2017-Sep-02 10:29N 28°09' W 015°26'0 0.0
2017-Sep-02 09:59N 28°09' W 015°26'0 0.0
2017-Sep-02 09:29N 28°09' W 015°26'0 0.0
2017-Sep-02 08:50N 28°09' W 015°26'0 0.0
2017-Sep-02 08:20N 28°09' W 015°26'0 0.0
2017-Sep-02 07:53N 28°09' W 015°26'0 0.0
2017-Sep-02 07:23N 28°09' W 015°26'0 0.0
2017-Sep-02 06:53N 28°09' W 015°26'0 0.0
2017-Sep-02 06:23N 28°09' W 015°26'0 0.0
2017-Sep-02 05:53N 28°09' W 015°26'0 0.0
2017-Sep-02 05:20N 28°09' W 015°26'0 0.0
2017-Sep-02 04:53N 28°09' W 015°26'0 0.0
2017-Sep-02 04:26N 28°09' W 015°26'0 0.0
2017-Sep-02 03:56N 28°09' W 015°26'0 0.0
2017-Sep-02 03:26N 28°09' W 015°26'0 0.0
2017-Sep-02 02:56N 28°09' W 015°26'0 0.0
2017-Sep-02 02:26N 28°09' W 015°26'0 0.0
2017-Sep-02 01:56N 28°09' W 015°26'0 0.0
2017-Sep-02 01:26N 28°09' W 015°26'0 0.0
2017-Sep-02 00:59N 28°09' W 015°26'0 0.0
2017-Sep-02 00:29N 28°09' W 015°26'0 0.0
2017-Sep-01 23:59N 28°09' W 015°26'0 0.0
2017-Sep-01 23:29N 28°09' W 015°26'0 0.0
2017-Sep-01 22:59N 28°09' W 015°26'0 0.0
2017-Sep-01 22:29N 28°09' W 015°26'0 0.0
2017-Sep-01 21:59N 28°09' W 015°26'0 0.0
2017-Sep-01 21:29N 28°09' W 015°26'0 0.0
2017-Sep-01 20:59N 28°09' W 015°26'0 0.0
2017-Sep-01 20:29N 28°09' W 015°26'0 0.0
2017-Sep-01 19:59N 28°09' W 015°26'0 0.0
2017-Sep-01 19:29N 28°09' W 015°26'0 0.0
2017-Sep-01 18:59N 28°09' W 015°26'0 0.0
2017-Sep-01 18:29N 28°09' W 015°26'0 0.0
2017-Sep-01 17:59N 28°09' W 015°26'0 0.0
2017-Sep-01 17:20N 28°09' W 015°26'0 0.0
2017-Sep-01 16:50N 28°09' W 015°26'0 0.0
2017-Sep-01 16:23N 28°09' W 015°26'0 0.0
2017-Sep-01 15:53N 28°09' W 015°26'0 0.0
2017-Sep-01 15:23N 28°09' W 015°26'0 0.0
2017-Sep-01 14:53N 28°09' W 015°26'0 0.0
2017-Sep-01 14:23N 28°09' W 015°26'0 0.0
2017-Sep-01 13:53N 28°09' W 015°26'0 0.0
2017-Sep-01 13:23N 28°09' W 015°26'0 0.0
2017-Sep-01 12:56N 28°09' W 015°26'0 0.0
2017-Sep-01 12:26N 28°09' W 015°26'0 0.0
2017-Sep-01 11:56N 28°09' W 015°26'0 0.0
2017-Sep-01 11:26N 28°09' W 015°26'0 0.0
2017-Sep-01 10:59N 28°09' W 015°26'0 0.0
2017-Sep-01 10:29N 28°09' W 015°26'0 0.0
2017-Sep-01 09:59N 28°09' W 015°26'0 0.0
2017-Sep-01 09:29N 28°09' W 015°26'0 0.0
2017-Sep-01 08:56N 28°09' W 015°26'0 0.0
2017-Sep-01 08:29N 28°09' W 015°26'0 0.0
2017-Sep-01 07:59N 28°09' W 015°26'0 0.0
2017-Sep-01 07:29N 28°09' W 015°26'0 0.0
2017-Sep-01 06:59N 28°09' W 015°26'0 0.0
2017-Sep-01 06:29N 28°09' W 015°26'0 0.0
2017-Sep-01 05:59N 28°09' W 015°26'0 0.0
2017-Sep-01 05:29N 28°09' W 015°26'0 0.0
2017-Sep-01 04:59N 28°09' W 015°26'0 0.0
2017-Sep-01 04:29N 28°09' W 015°26'0 0.0
2017-Sep-01 03:59N 28°09' W 015°26'0 0.0
2017-Sep-01 03:29N 28°09' W 015°26'0 0.0
2017-Sep-01 02:59N 28°09' W 015°26'0 0.0
2017-Sep-01 02:20N 28°09' W 015°26'0 0.0
2017-Sep-01 01:50N 28°09' W 015°26'0 0.0
2017-Sep-01 01:23N 28°09' W 015°26'0 0.0
2017-Sep-01 00:53N 28°09' W 015°26'0 0.0
2017-Sep-01 00:23N 28°09' W 015°26'0 0.0
2017-Aug-31 23:53N 28°09' W 015°26'0 0.0
2017-Aug-31 23:23N 28°09' W 015°26'0 0.0
2017-Aug-31 22:53N 28°09' W 015°26'0 0.0
2017-Aug-31 22:26N 28°09' W 015°26'0 0.0
2017-Aug-31 21:53N 28°09' W 015°26'0 0.0
2017-Aug-31 21:23N 28°09' W 015°26'0 0.0
2017-Aug-31 20:56N 28°09' W 015°26'0 0.0
2017-Aug-31 20:26N 28°09' W 015°26'0 0.0
2017-Aug-31 19:56N 28°09' W 015°26'0 0.0
2017-Aug-31 19:26N 28°09' W 015°26'0 0.0
2017-Aug-31 18:59N 28°09' W 015°26'0 0.0
2017-Aug-31 18:29N 28°09' W 015°26'0 0.0
2017-Aug-31 17:59N 28°09' W 015°26'0 0.0
2017-Aug-31 17:29N 28°09' W 015°26'0 0.0
2017-Aug-31 16:59N 28°09' W 015°26'0 0.0
2017-Aug-31 16:29N 28°09' W 015°26'0 0.0
2017-Aug-31 15:59N 28°09' W 015°26'0 0.0
2017-Aug-31 15:29N 28°09' W 015°26'0 0.0
2017-Aug-31 14:59N 28°09' W 015°26'0 0.0
2017-Aug-31 14:29N 28°09' W 015°26'0 0.0
2017-Aug-31 13:59N 28°09' W 015°26'0 0.0
2017-Aug-31 13:29N 28°09' W 015°26'0 0.0
2017-Aug-31 12:59N 28°09' W 015°26'0 0.0
2017-Aug-31 12:29N 28°09' W 015°26'0 0.0
2017-Aug-31 11:59N 28°09' W 015°26'0 0.0
2017-Aug-31 11:29N 28°09' W 015°26'0 0.0
2017-Aug-31 10:59N 28°09' W 015°26'0 0.0
2017-Aug-31 10:29N 28°09' W 015°26'0 0.0
2017-Aug-31 09:59N 28°09' W 015°26'0 0.0
2017-Aug-31 09:29N 28°09' W 015°26'0 0.0
2017-Aug-31 08:59N 28°09' W 015°26'0 0.0
2017-Aug-31 08:29N 28°09' W 015°26'0 0.0
2017-Aug-31 07:59N 28°09' W 015°26'0 0.0
2017-Aug-31 07:29N 28°09' W 015°26'0 0.0
2017-Aug-31 06:59N 28°09' W 015°26'0 0.0
2017-Aug-31 06:29N 28°09' W 015°26'0 0.0
2017-Aug-31 05:59N 28°09' W 015°26'0 0.0
2017-Aug-31 05:29N 28°09' W 015°26'0 0.0
2017-Aug-31 04:56N 28°09' W 015°26'0 0.0
2017-Aug-31 04:29N 28°09' W 015°26'0 0.0
2017-Aug-31 03:59N 28°09' W 015°26'0 0.0
2017-Aug-31 03:29N 28°09' W 015°26'0 0.0
2017-Aug-31 02:59N 28°09' W 015°26'0 0.0
2017-Aug-31 02:29N 28°09' W 015°26'0 0.0
2017-Aug-31 01:59N 28°09' W 015°26'0 0.0
2017-Aug-31 01:29N 28°09' W 015°26'0 0.0
2017-Aug-31 00:59N 28°09' W 015°26'0 0.0
2017-Aug-31 00:29N 28°09' W 015°26'0 0.0
2017-Aug-30 23:59N 28°09' W 015°26'0 0.0
2017-Aug-30 23:29N 28°09' W 015°26'0 0.0
2017-Aug-30 22:59N 28°09' W 015°26'0 0.0
2017-Aug-30 22:29N 28°09' W 015°26'0 0.0
2017-Aug-30 21:59N 28°09' W 015°26'0 0.0
2017-Aug-30 21:29N 28°09' W 015°26'0 0.0
2017-Aug-30 20:59N 28°09' W 015°26'0 0.0
2017-Aug-30 20:29N 28°09' W 015°26'0 0.0
2017-Aug-30 19:59N 28°09' W 015°26'0 0.0
2017-Aug-30 19:29N 28°09' W 015°26'0 0.0
2017-Aug-30 18:59N 28°09' W 015°26'0 0.0
2017-Aug-30 18:29N 28°09' W 015°26'0 0.0
2017-Aug-30 17:59N 28°09' W 015°26'0 0.0
2017-Aug-30 17:29N 28°09' W 015°26'0 0.0
2017-Aug-30 16:59N 28°09' W 015°26'0 0.0
2017-Aug-30 16:29N 28°09' W 015°26'0 0.0
2017-Aug-30 15:59N 28°09' W 015°26'0 0.0
2017-Aug-30 15:29N 28°09' W 015°26'0 0.0
2017-Aug-30 14:59N 28°09' W 015°26'0 0.0
2017-Aug-30 14:29N 28°09' W 015°26'0 0.0
2017-Aug-30 13:59N 28°09' W 015°26'0 0.0
2017-Aug-30 13:29N 28°09' W 015°26'0 0.0
2017-Aug-30 12:59N 28°09' W 015°26'0 0.0
2017-Aug-30 12:29N 28°09' W 015°26'0 0.0
2017-Aug-30 11:59N 28°09' W 015°26'0 0.0
2017-Aug-30 11:26N 28°09' W 015°26'0 0.0
2017-Aug-30 10:53N 28°09' W 015°26'0 0.0
2017-Aug-30 10:17N 28°09' W 015°26'  
Track history (hours):
 
Tides and Currents Weather Stations Pressure Air Temp Water Temp Dewpoint Dewpoint Depression Visibility Wind Speed Wind Dir Waves Ship Positions

Taraska

Last reported at 2017-Sep-07 23:25 UTC. Time now 2017-Sep-23 00:19 UTC.
Position N 27°14' W 015°30'.
Warning: this ship's position is 15 days out of date.

Length 37 m; draft 2.5 m.

Type: Ship. MMSI: 518808000.

Date/timePositionNaut miles runAvg speedWind from/ knotsBaromVisibWave heightAir tempDewpointWater temp
2017-Sep-07 23:25N 27°14' W 015°30'4 7.9
2017-Sep-07 22:55N 27°18' W 015°29'5 8.2
2017-Sep-07 22:17N 27°23' W 015°28'3 8.5
2017-Sep-07 21:54N 27°26' W 015°27'4 8.4
2017-Sep-07 21:26N 27°30' W 015°26'16 9.4
2017-Sep-07 19:42N 27°46' W 015°21'210.1
2017-Sep-07 19:29N 27°48' W 015°21'510.0
2017-Sep-07 19:00N 27°53' W 015°19'5 9.2
2017-Sep-07 18:31N 27°57' W 015°19'4 8.6
2017-Sep-07 18:00N 28°01' W 015°20'4 8.5
2017-Sep-07 17:31N 28°05' W 015°22'4 7.9
2017-Sep-07 17:01N 28°08' W 015°25'1 1.6
2017-Sep-07 16:30N 28°09' W 015°26'0 0.0
2017-Sep-07 16:00N 28°09' W 015°26'0 0.0
2017-Sep-07 15:30N 28°09' W 015°26'0 0.0
2017-Sep-07 15:00N 28°09' W 015°26'0 0.0
2017-Sep-07 14:30N 28°09' W 015°26'0 0.0
2017-Sep-07 14:00N 28°09' W 015°26'0 0.0
2017-Sep-07 13:30N 28°09' W 015°26'0 0.0
2017-Sep-07 12:57N 28°09' W 015°26'0 0.0
2017-Sep-07 12:30N 28°09' W 015°26'0 0.0
2017-Sep-07 12:00N 28°09' W 015°26'0 0.0
2017-Sep-07 11:30N 28°09' W 015°26'0 0.0
2017-Sep-07 11:00N 28°09' W 015°26'0 0.0
2017-Sep-07 10:21N 28°09' W 015°26'0 0.0
2017-Sep-07 10:00N 28°09' W 015°26'0 0.0
2017-Sep-07 09:30N 28°09' W 015°26'0 0.0
2017-Sep-07 08:51N 28°09' W 015°26'0 0.0
2017-Sep-07 08:21N 28°09' W 015°26'0 0.0
2017-Sep-07 07:54N 28°09' W 015°26'0 0.0
2017-Sep-07 07:21N 28°09' W 015°26'0 0.0
2017-Sep-07 06:54N 28°09' W 015°26'0 0.0
2017-Sep-07 06:24N 28°09' W 015°26'0 0.0
2017-Sep-07 05:54N 28°09' W 015°26'0 0.0
2017-Sep-07 05:27N 28°09' W 015°26'0 0.0
2017-Sep-07 04:57N 28°09' W 015°26'0 0.0
2017-Sep-07 04:27N 28°09' W 015°26'0 0.0
2017-Sep-07 03:57N 28°09' W 015°26'0 0.0
2017-Sep-07 03:27N 28°09' W 015°26'0 0.0
2017-Sep-07 02:57N 28°09' W 015°26'0 0.0
2017-Sep-07 02:27N 28°09' W 015°26'0 0.0
2017-Sep-07 02:00N 28°09' W 015°26'0 0.0
2017-Sep-07 01:27N 28°09' W 015°26'0 0.0
2017-Sep-07 01:00N 28°09' W 015°26'0 0.0
2017-Sep-07 00:30N 28°09' W 015°26'0 0.0
2017-Sep-06 23:57N 28°09' W 015°26'0 0.0
2017-Sep-06 23:30N 28°09' W 015°26'0 0.0
2017-Sep-06 23:00N 28°09' W 015°26'0 0.0
2017-Sep-06 22:30N 28°09' W 015°26'0 0.0
2017-Sep-06 22:00N 28°09' W 015°26'0 0.0
2017-Sep-06 21:30N 28°09' W 015°26'0 0.0
2017-Sep-06 21:00N 28°09' W 015°26'0 0.0
2017-Sep-06 20:30N 28°09' W 015°26'0 0.0
2017-Sep-06 20:00N 28°09' W 015°26'0 0.0
2017-Sep-06 19:30N 28°09' W 015°26'0 0.0
2017-Sep-06 19:00N 28°09' W 015°26'0 0.0
2017-Sep-06 18:30N 28°09' W 015°26'0 0.0
2017-Sep-06 17:51N 28°09' W 015°26'0 0.0
2017-Sep-06 17:21N 28°09' W 015°26'0 0.0
2017-Sep-06 16:54N 28°09' W 015°26'0 0.0
2017-Sep-06 16:24N 28°09' W 015°26'0 0.0
2017-Sep-06 15:54N 28°09' W 015°26'0 0.0
2017-Sep-06 15:24N 28°09' W 015°26'0 0.0
2017-Sep-06 14:54N 28°09' W 015°26'0 0.0
2017-Sep-06 14:24N 28°09' W 015°26'0 0.0
2017-Sep-06 13:57N 28°09' W 015°26'0 0.0
2017-Sep-06 13:27N 28°09' W 015°26'0 0.0
2017-Sep-06 12:57N 28°09' W 015°26'0 0.0
2017-Sep-06 12:27N 28°09' W 015°26'0 0.0
2017-Sep-06 11:57N 28°09' W 015°26'0 0.0
2017-Sep-06 11:27N 28°09' W 015°26'0 0.0
2017-Sep-06 11:00N 28°09' W 015°26'0 0.0
2017-Sep-06 10:30N 28°09' W 015°26'0 0.0
2017-Sep-06 10:00N 28°09' W 015°26'0 0.0
2017-Sep-06 09:30N 28°09' W 015°26'0 0.0
2017-Sep-06 09:00N 28°09' W 015°26'0 0.0
2017-Sep-06 08:30N 28°09' W 015°26'0 0.0
2017-Sep-06 08:00N 28°09' W 015°26'0 0.0
2017-Sep-06 07:30N 28°09' W 015°26'0 0.0
2017-Sep-06 07:00N 28°09' W 015°26'0 0.0
2017-Sep-06 06:30N 28°09' W 015°26'0 0.0
2017-Sep-06 06:00N 28°09' W 015°26'0 0.0
2017-Sep-06 05:18N 28°09' W 015°26'0 0.0
2017-Sep-06 05:00N 28°09' W 015°26'0 0.0
2017-Sep-06 04:30N 28°09' W 015°26'0 0.0
2017-Sep-06 04:00N 28°09' W 015°26'0 0.0
2017-Sep-06 03:21N 28°09' W 015°26'0 0.0
2017-Sep-06 02:51N 28°09' W 015°26'0 0.0
2017-Sep-06 02:21N 28°09' W 015°26'0 0.0
2017-Sep-06 01:51N 28°09' W 015°26'0 0.0
2017-Sep-06 01:21N 28°09' W 015°26'0 0.0
2017-Sep-06 00:54N 28°09' W 015°26'0 0.0
2017-Sep-06 00:24N 28°09' W 015°26'0 0.0
2017-Sep-05 23:54N 28°09' W 015°26'0 0.0
2017-Sep-05 23:24N 28°09' W 015°26'0 0.0
2017-Sep-05 22:57N 28°09' W 015°26'0 0.0
2017-Sep-05 22:27N 28°09' W 015°26'0 0.0
2017-Sep-05 21:57N 28°09' W 015°26'0 0.0
2017-Sep-05 21:27N 28°09' W 015°26'0 0.0
2017-Sep-05 20:57N 28°09' W 015°26'0 0.0
2017-Sep-05 20:30N 28°09' W 015°26'0 0.0
2017-Sep-05 20:00N 28°09' W 015°26'0 0.0
2017-Sep-05 19:30N 28°09' W 015°26'0 0.0
2017-Sep-05 18:57N 28°09' W 015°26'0 0.0
2017-Sep-05 18:30N 28°09' W 015°26'0 0.0
2017-Sep-05 18:00N 28°09' W 015°26'0 0.0
2017-Sep-05 17:30N 28°09' W 015°26'0 0.0
2017-Sep-05 17:00N 28°09' W 015°26'0 0.0
2017-Sep-05 16:27N 28°09' W 015°26'0 0.0
2017-Sep-05 16:00N 28°09' W 015°26'0 0.0
2017-Sep-05 15:30N 28°09' W 015°26'0 0.0
2017-Sep-05 15:00N 28°09' W 015°26'0 0.0
2017-Sep-05 14:30N 28°09' W 015°26'0 0.0
2017-Sep-05 14:00N 28°09' W 015°26'0 0.0
2017-Sep-05 13:30N 28°09' W 015°26'0 0.0
2017-Sep-05 13:00N 28°09' W 015°26'0 0.0
2017-Sep-05 12:30N 28°09' W 015°26'0 0.0
2017-Sep-05 12:00N 28°09' W 015°26'0 0.0
2017-Sep-05 11:21N 28°09' W 015°26'0 0.0
2017-Sep-05 10:51N 28°09' W 015°26'0 0.0
2017-Sep-05 10:21N 28°09' W 015°26'0 0.0
2017-Sep-05 09:54N 28°09' W 015°26'0 0.0
2017-Sep-05 09:24N 28°09' W 015°26'0 0.0
2017-Sep-05 08:54N 28°09' W 015°26'0 0.0
2017-Sep-05 08:24N 28°09' W 015°26'0 0.0
2017-Sep-05 07:57N 28°09' W 015°26'0 0.0
2017-Sep-05 07:27N 28°09' W 015°26'0 0.0
2017-Sep-05 06:57N 28°09' W 015°26'0 0.0
2017-Sep-05 06:27N 28°09' W 015°26'0 0.0
2017-Sep-05 05:57N 28°09' W 015°26'0 0.0
2017-Sep-05 05:27N 28°09' W 015°26'0 0.0
2017-Sep-05 05:00N 28°09' W 015°26'0 0.0
2017-Sep-05 04:30N 28°09' W 015°26'0 0.0
2017-Sep-05 04:00N 28°09' W 015°26'0 0.0
2017-Sep-05 03:30N 28°09' W 015°26'0 0.0
2017-Sep-05 03:00N 28°09' W 015°26'0 0.0
2017-Sep-05 02:30N 28°09' W 015°26'0 0.0
2017-Sep-05 02:00N 28°09' W 015°26'0 0.0
2017-Sep-05 01:30N 28°09' W 015°26'0 0.0
2017-Sep-05 01:00N 28°09' W 015°26'0 0.0
2017-Sep-05 00:30N 28°09' W 015°26'0 0.0
2017-Sep-05 00:00N 28°09' W 015°26'0 0.0
2017-Sep-04 23:30N 28°09' W 015°26'0 0.0
2017-Sep-04 23:00N 28°09' W 015°26'0 0.0
2017-Sep-04 22:30N 28°09' W 015°26'0 0.0
2017-Sep-04 22:00N 28°09' W 015°26'0 0.0
2017-Sep-04 21:30N 28°09' W 015°26'0 0.0
2017-Sep-04 20:51N 28°09' W 015°26'0 0.0
2017-Sep-04 20:21N 28°09' W 015°26'0 0.0
2017-Sep-04 19:51N 28°09' W 015°26'0 0.0
2017-Sep-04 19:24N 28°09' W 015°26'0 0.0
2017-Sep-04 18:54N 28°09' W 015°26'0 0.0
2017-Sep-04 18:24N 28°09' W 015°26'0 0.0
2017-Sep-04 17:54N 28°09' W 015°26'0 0.0
2017-Sep-04 17:24N 28°09' W 015°26'0 0.0
2017-Sep-04 16:57N 28°09' W 015°26'0 0.0
2017-Sep-04 16:27N 28°09' W 015°26'0 0.0
2017-Sep-04 15:57N 28°09' W 015°26'0 0.0
2017-Sep-04 15:27N 28°09' W 015°26'0 0.0
2017-Sep-04 14:57N 28°09' W 015°26'0 0.0
2017-Sep-04 14:27N 28°09' W 015°26'0 0.0
2017-Sep-04 13:57N 28°09' W 015°26'0 0.0
2017-Sep-04 13:30N 28°09' W 015°26'0 0.0
2017-Sep-04 13:00N 28°09' W 015°26'0 0.0
2017-Sep-04 12:30N 28°09' W 015°26'0 0.0
2017-Sep-04 11:45N 28°09' W 015°26'0 0.0
2017-Sep-04 11:30N 28°09' W 015°26'0 0.0
2017-Sep-04 11:00N 28°09' W 015°26'0 0.0
2017-Sep-04 10:30N 28°09' W 015°26'0 0.0
2017-Sep-04 10:00N 28°09' W 015°26'0 0.0
2017-Sep-04 09:30N 28°09' W 015°26'0 0.0
2017-Sep-04 09:00N 28°09' W 015°26'0 0.0
2017-Sep-04 08:30N 28°09' W 015°26'0 0.0
2017-Sep-04 07:51N 28°09' W 015°26'0 0.0
2017-Sep-04 07:30N 28°09' W 015°26'0 0.0
2017-Sep-04 06:51N 28°09' W 015°26'0 0.0
2017-Sep-04 06:21N 28°09' W 015°26'0 0.0
2017-Sep-04 05:51N 28°09' W 015°26'0 0.0
2017-Sep-04 05:20N 28°09' W 015°26'0 0.0
2017-Sep-04 04:54N 28°09' W 015°26'0 0.0
2017-Sep-04 04:24N 28°09' W 015°26'0 0.0
2017-Sep-04 03:51N 28°09' W 015°26'0 0.0
2017-Sep-04 03:24N 28°09' W 015°26'0 0.0
2017-Sep-04 02:54N 28°09' W 015°26'0 0.0
2017-Sep-04 02:21N 28°09' W 015°26'0 0.0
2017-Sep-04 01:57N 28°09' W 015°26'0 0.0
2017-Sep-04 01:27N 28°09' W 015°26'0 0.0
2017-Sep-04 00:57N 28°09' W 015°26'0 0.0
2017-Sep-04 00:27N 28°09' W 015°26'0 0.0
2017-Sep-03 23:57N 28°09' W 015°26'0 0.0
2017-Sep-03 23:27N 28°09' W 015°26'0 0.0
2017-Sep-03 22:57N 28°09' W 015°26'0 0.0
2017-Sep-03 22:27N 28°09' W 015°26'0 0.0
2017-Sep-03 22:00N 28°09' W 015°26'0 0.0
2017-Sep-03 21:30N 28°09' W 015°26'0 0.0
2017-Sep-03 21:00N 28°09' W 015°26'0 0.0
2017-Sep-03 20:30N 28°09' W 015°26'0 0.0
2017-Sep-03 19:59N 28°09' W 015°26'0 0.0
2017-Sep-03 19:30N 28°09' W 015°26'0 0.0
2017-Sep-03 19:00N 28°09' W 015°26'0 0.0
2017-Sep-03 18:30N 28°09' W 015°26'0 0.0
2017-Sep-03 18:00N 28°09' W 015°26'0 0.0
2017-Sep-03 17:30N 28°09' W 015°26'0 0.0
2017-Sep-03 17:00N 28°09' W 015°26'0 0.0
2017-Sep-03 16:30N 28°09' W 015°26'0 0.0
2017-Sep-03 16:00N 28°09' W 015°26'0 0.0
2017-Sep-03 15:29N 28°09' W 015°26'0 0.0
2017-Sep-03 14:51N 28°09' W 015°26'0 0.0
2017-Sep-03 13:50N 28°09' W 015°26'0 0.0
2017-Sep-03 13:20N 28°09' W 015°26'0 0.0
2017-Sep-03 12:54N 28°09' W 015°26'0 0.0
2017-Sep-03 12:23N 28°09' W 015°26'0 0.0
2017-Sep-03 11:53N 28°09' W 015°26'0 0.0
2017-Sep-03 11:27N 28°09' W 015°26'0 0.0
2017-Sep-03 10:57N 28°09' W 015°26'0 0.0
2017-Sep-03 10:26N 28°09' W 015°26'0 0.0
2017-Sep-03 09:57N 28°09' W 015°26'0 0.0
2017-Sep-03 09:27N 28°09' W 015°26'0 0.0
2017-Sep-03 08:56N 28°09' W 015°26'0 0.0
2017-Sep-03 08:26N 28°09' W 015°26'0 0.0
2017-Sep-03 08:00N 28°09' W 015°26'0 0.0
2017-Sep-03 07:29N 28°09' W 015°26'0 0.0
2017-Sep-03 06:59N 28°09' W 015°26'0 0.0
2017-Sep-03 06:29N 28°09' W 015°26'0 0.0
2017-Sep-03 06:00N 28°09' W 015°26'0 0.0
2017-Sep-03 05:29N 28°09' W 015°26'0 0.0
2017-Sep-03 05:00N 28°09' W 015°26'0 0.0
2017-Sep-03 04:29N 28°09' W 015°26'0 0.0
2017-Sep-03 03:59N 28°09' W 015°26'0 0.0
2017-Sep-03 03:29N 28°09' W 015°26'0 0.0
2017-Sep-03 03:00N 28°09' W 015°26'0 0.0
2017-Sep-03 02:29N 28°09' W 015°26'0 0.0
2017-Sep-03 01:59N 28°09' W 015°26'0 0.0
2017-Sep-03 01:29N 28°09' W 015°26'0 0.0
2017-Sep-03 00:59N 28°09' W 015°26'0 0.0
2017-Sep-03 00:29N 28°09' W 015°26'0 0.0
2017-Sep-02 23:54N 28°09' W 015°26'0 0.0
2017-Sep-02 23:20N 28°09' W 015°26'0 0.0
2017-Sep-02 22:50N 28°09' W 015°26'0 0.0
2017-Sep-02 22:20N 28°09' W 015°26'0 0.0
2017-Sep-02 21:53N 28°09' W 015°26'0 0.0
2017-Sep-02 21:24N 28°09' W 015°26'0 0.0
2017-Sep-02 20:53N 28°09' W 015°26'0 0.0
2017-Sep-02 20:23N 28°09' W 015°26'0 0.0
2017-Sep-02 19:50N 28°09' W 015°26'0 0.0
2017-Sep-02 19:23N 28°09' W 015°26'0 0.0
2017-Sep-02 18:56N 28°09' W 015°26'0 0.0
2017-Sep-02 18:26N 28°09' W 015°26'0 0.0
2017-Sep-02 17:56N 28°09' W 015°26'0 0.0
2017-Sep-02 17:26N 28°09' W 015°26'0 0.0
2017-Sep-02 16:56N 28°09' W 015°26'0 0.0
2017-Sep-02 16:29N 28°09' W 015°26'0 0.0
2017-Sep-02 15:59N 28°09' W 015°26'0 0.0
2017-Sep-02 15:29N 28°09' W 015°26'0 0.0
2017-Sep-02 14:59N 28°09' W 015°26'0 0.0
2017-Sep-02 14:29N 28°09' W 015°26'0 0.0
2017-Sep-02 13:59N 28°09' W 015°26'0 0.0
2017-Sep-02 13:29N 28°09' W 015°26'0 0.0
2017-Sep-02 12:59N 28°09' W 015°26'0 0.0
2017-Sep-02 12:29N 28°09' W 015°26'0 0.0
2017-Sep-02 11:59N 28°09' W 015°26'0 0.0
2017-Sep-02 11:29N 28°09' W 015°26'0 0.0
2017-Sep-02 10:59N 28°09' W 015°26'0 0.0
2017-Sep-02 10:29N 28°09' W 015°26'0 0.0
2017-Sep-02 09:59N 28°09' W 015°26'0 0.0
2017-Sep-02 09:29N 28°09' W 015°26'0 0.0
2017-Sep-02 08:50N 28°09' W 015°26'0 0.0
2017-Sep-02 08:20N 28°09' W 015°26'0 0.0
2017-Sep-02 07:53N 28°09' W 015°26'0 0.0
2017-Sep-02 07:23N 28°09' W 015°26'0 0.0
2017-Sep-02 06:53N 28°09' W 015°26'0 0.0
2017-Sep-02 06:23N 28°09' W 015°26'0 0.0
2017-Sep-02 05:53N 28°09' W 015°26'0 0.0
2017-Sep-02 05:20N 28°09' W 015°26'0 0.0
2017-Sep-02 04:53N 28°09' W 015°26'0 0.0
2017-Sep-02 04:26N 28°09' W 015°26'0 0.0
2017-Sep-02 03:56N 28°09' W 015°26'0 0.0
2017-Sep-02 03:26N 28°09' W 015°26'0 0.0
2017-Sep-02 02:56N 28°09' W 015°26'0 0.0
2017-Sep-02 02:26N 28°09' W 015°26'0 0.0
2017-Sep-02 01:56N 28°09' W 015°26'0 0.0
2017-Sep-02 01:26N 28°09' W 015°26'0 0.0
2017-Sep-02 00:59N 28°09' W 015°26'0 0.0
2017-Sep-02 00:29N 28°09' W 015°26'0 0.0
2017-Sep-01 23:59N 28°09' W 015°26'0 0.0
2017-Sep-01 23:29N 28°09' W 015°26'0 0.0
2017-Sep-01 22:59N 28°09' W 015°26'0 0.0
2017-Sep-01 22:29N 28°09' W 015°26'0 0.0
2017-Sep-01 21:59N 28°09' W 015°26'0 0.0
2017-Sep-01 21:29N 28°09' W 015°26'0 0.0
2017-Sep-01 20:59N 28°09' W 015°26'0 0.0
2017-Sep-01 20:29N 28°09' W 015°26'0 0.0
2017-Sep-01 19:59N 28°09' W 015°26'0 0.0
2017-Sep-01 19:29N 28°09' W 015°26'0 0.0
2017-Sep-01 18:59N 28°09' W 015°26'0 0.0
2017-Sep-01 18:29N 28°09' W 015°26'0 0.0
2017-Sep-01 17:59N 28°09' W 015°26'0 0.0
2017-Sep-01 17:20N 28°09' W 015°26'0 0.0
2017-Sep-01 16:50N 28°09' W 015°26'0 0.0
2017-Sep-01 16:23N 28°09' W 015°26'0 0.0
2017-Sep-01 15:53N 28°09' W 015°26'0 0.0
2017-Sep-01 15:23N 28°09' W 015°26'0 0.0
2017-Sep-01 14:53N 28°09' W 015°26'0 0.0
2017-Sep-01 14:23N 28°09' W 015°26'0 0.0
2017-Sep-01 13:53N 28°09' W 015°26'0 0.0
2017-Sep-01 13:23N 28°09' W 015°26'0 0.0
2017-Sep-01 12:56N 28°09' W 015°26'0 0.0
2017-Sep-01 12:26N 28°09' W 015°26'0 0.0
2017-Sep-01 11:56N 28°09' W 015°26'0 0.0
2017-Sep-01 11:26N 28°09' W 015°26'0 0.0
2017-Sep-01 10:59N 28°09' W 015°26'0 0.0
2017-Sep-01 10:29N 28°09' W 015°26'0 0.0
2017-Sep-01 09:59N 28°09' W 015°26'0 0.0
2017-Sep-01 09:29N 28°09' W 015°26'0 0.0
2017-Sep-01 08:56N 28°09' W 015°26'0 0.0
2017-Sep-01 08:29N 28°09' W 015°26'0 0.0
2017-Sep-01 07:59N 28°09' W 015°26'0 0.0
2017-Sep-01 07:29N 28°09' W 015°26'0 0.0
2017-Sep-01 06:59N 28°09' W 015°26'0 0.0
2017-Sep-01 06:29N 28°09' W 015°26'0 0.0
2017-Sep-01 05:59N 28°09' W 015°26'0 0.0
2017-Sep-01 05:29N 28°09' W 015°26'0 0.0
2017-Sep-01 04:59N 28°09' W 015°26'0 0.0
2017-Sep-01 04:29N 28°09' W 015°26'0 0.0
2017-Sep-01 03:59N 28°09' W 015°26'0 0.0
2017-Sep-01 03:29N 28°09' W 015°26'0 0.0
2017-Sep-01 02:59N 28°09' W 015°26'0 0.0
2017-Sep-01 02:20N 28°09' W 015°26'0 0.0
2017-Sep-01 01:50N 28°09' W 015°26'0 0.0
2017-Sep-01 01:23N 28°09' W 015°26'0 0.0
2017-Sep-01 00:53N 28°09' W 015°26'0 0.0
2017-Sep-01 00:23N 28°09' W 015°26'0 0.0
2017-Aug-31 23:53N 28°09' W 015°26'0 0.0
2017-Aug-31 23:23N 28°09' W 015°26'0 0.0
2017-Aug-31 22:53N 28°09' W 015°26'0 0.0
2017-Aug-31 22:26N 28°09' W 015°26'0 0.0
2017-Aug-31 21:53N 28°09' W 015°26'0 0.0
2017-Aug-31 21:23N 28°09' W 015°26'0 0.0
2017-Aug-31 20:56N 28°09' W 015°26'0 0.0
2017-Aug-31 20:26N 28°09' W 015°26'0 0.0
2017-Aug-31 19:56N 28°09' W 015°26'0 0.0
2017-Aug-31 19:26N 28°09' W 015°26'0 0.0
2017-Aug-31 18:59N 28°09' W 015°26'0 0.0
2017-Aug-31 18:29N 28°09' W 015°26'0 0.0
2017-Aug-31 17:59N 28°09' W 015°26'0 0.0
2017-Aug-31 17:29N 28°09' W 015°26'0 0.0
2017-Aug-31 16:59N 28°09' W 015°26'0 0.0
2017-Aug-31 16:29N 28°09' W 015°26'0 0.0
2017-Aug-31 15:59N 28°09' W 015°26'0 0.0
2017-Aug-31 15:29N 28°09' W 015°26'0 0.0
2017-Aug-31 14:59N 28°09' W 015°26'0 0.0
2017-Aug-31 14:29N 28°09' W 015°26'0 0.0
2017-Aug-31 13:59N 28°09' W 015°26'0 0.0
2017-Aug-31 13:29N 28°09' W 015°26'0 0.0
2017-Aug-31 12:59N 28°09' W 015°26'0 0.0
2017-Aug-31 12:29N 28°09' W 015°26'0 0.0
2017-Aug-31 11:59N 28°09' W 015°26'0 0.0
2017-Aug-31 11:29N 28°09' W 015°26'0 0.0
2017-Aug-31 10:59N 28°09' W 015°26'0 0.0
2017-Aug-31 10:29N 28°09' W 015°26'0 0.0
2017-Aug-31 09:59N 28°09' W 015°26'0 0.0
2017-Aug-31 09:29N 28°09' W 015°26'0 0.0
2017-Aug-31 08:59N 28°09' W 015°26'0 0.0
2017-Aug-31 08:29N 28°09' W 015°26'0 0.0
2017-Aug-31 07:59N 28°09' W 015°26'0 0.0
2017-Aug-31 07:29N 28°09' W 015°26'0 0.0
2017-Aug-31 06:59N 28°09' W 015°26'0 0.0
2017-Aug-31 06:29N 28°09' W 015°26'0 0.0
2017-Aug-31 05:59N 28°09' W 015°26'0 0.0
2017-Aug-31 05:29N 28°09' W 015°26'0 0.0
2017-Aug-31 04:56N 28°09' W 015°26'0 0.0
2017-Aug-31 04:29N 28°09' W 015°26'0 0.0
2017-Aug-31 03:59N 28°09' W 015°26'0 0.0
2017-Aug-31 03:29N 28°09' W 015°26'0 0.0
2017-Aug-31 02:59N 28°09' W 015°26'0 0.0
2017-Aug-31 02:29N 28°09' W 015°26'0 0.0
2017-Aug-31 01:59N 28°09' W 015°26'0 0.0
2017-Aug-31 01:29N 28°09' W 015°26'0 0.0
2017-Aug-31 00:59N 28°09' W 015°26'0 0.0
2017-Aug-31 00:29N 28°09' W 015°26'0 0.0
2017-Aug-30 23:59N 28°09' W 015°26'0 0.0
2017-Aug-30 23:29N 28°09' W 015°26'0 0.0
2017-Aug-30 22:59N 28°09' W 015°26'0 0.0
2017-Aug-30 22:29N 28°09' W 015°26'0 0.0
2017-Aug-30 21:59N 28°09' W 015°26'0 0.0
2017-Aug-30 21:29N 28°09' W 015°26'0 0.0
2017-Aug-30 20:59N 28°09' W 015°26'0 0.0
2017-Aug-30 20:29N 28°09' W 015°26'0 0.0
2017-Aug-30 19:59N 28°09' W 015°26'0 0.0
2017-Aug-30 19:29N 28°09' W 015°26'0 0.0
2017-Aug-30 18:59N 28°09' W 015°26'0 0.0
2017-Aug-30 18:29N 28°09' W 015°26'0 0.0
2017-Aug-30 17:59N 28°09' W 015°26'0 0.0
2017-Aug-30 17:29N 28°09' W 015°26'0 0.0
2017-Aug-30 16:59N 28°09' W 015°26'0 0.0
2017-Aug-30 16:29N 28°09' W 015°26'0 0.0
2017-Aug-30 15:59N 28°09' W 015°26'0 0.0
2017-Aug-30 15:29N 28°09' W 015°26'0 0.0
2017-Aug-30 14:59N 28°09' W 015°26'0 0.0
2017-Aug-30 14:29N 28°09' W 015°26'0 0.0
2017-Aug-30 13:59N 28°09' W 015°26'0 0.0
2017-Aug-30 13:29N 28°09' W 015°26'0 0.0
2017-Aug-30 12:59N 28°09' W 015°26'0 0.0
2017-Aug-30 12:29N 28°09' W 015°26'0 0.0
2017-Aug-30 11:59N 28°09' W 015°26'0 0.0
2017-Aug-30 11:26N 28°09' W 015°26'0 0.0
2017-Aug-30 10:53N 28°09' W 015°26'0 0.0
2017-Aug-30 10:17N 28°09' W 015°26'  

Dump ship's entire track history